Time;durP1;ratioP1;P1;durP2;ratioP2;P2;SDS_P1;SDS_P2;PMS_P1;PMS_P2;Temp;Humidity;BMP_temperature;BMP_pressure;BME280_temperature;BME280_humidity;BME280_pressure;Samples;Min_cycle;Max_cycle;Signal;HPM_P1;HPM_P2
2022/01/17 00:01:20;;;;;;;56.97;28.10;;;3.30;99.90;;;;;;5057348;28;20195;-48
2022/01/17 00:03:46;;;;;;;46.53;23.40;;;3.30;99.90;;;;;;5055708;28;20831;-50
2022/01/17 00:06:12;;;;;;;50.67;30.03;;;3.40;99.90;;;;;;5054328;28;20696;-47
2022/01/17 00:08:41;;;;;;;53.57;27.27;;;3.30;99.90;;;;;;5055625;28;20168;-49
2022/01/17 00:11:08;;;;;;;49.60;27.90;;;3.30;99.90;;;;;;5056936;28;20187;-47
2022/01/17 00:13:34;;;;;;;50.50;29.80;;;3.30;99.90;;;;;;5053411;28;20421;-49
2022/01/17 00:21:13;;;;;;;44.70;24.43;;;3.30;99.90;;;;;;5058252;28;20410;-50
2022/01/17 00:23:39;;;;;;;55.03;24.27;;;3.30;99.90;;;;;;5057790;28;20649;-47
2022/01/17 00:26:05;;;;;;;46.10;21.80;;;3.30;99.90;;;;;;5050812;28;20573;-48
2022/01/17 00:28:31;;;;;;;41.00;22.30;;;3.30;99.90;;;;;;5057773;28;20883;-46
2022/01/17 00:30:57;;;;;;;45.90;23.70;;;3.20;99.90;;;;;;5059823;28;20848;-46
2022/01/17 00:33:23;;;;;;;44.73;19.60;;;3.20;99.90;;;;;;5056054;28;20457;-51
2022/01/17 00:35:49;;;;;;;51.37;24.40;;;3.20;99.90;;;;;;5054656;28;20213;-47
2022/01/17 00:38:15;;;;;;;39.10;19.77;;;3.20;99.90;;;;;;5052934;28;20209;-49
2022/01/17 00:40:41;;;;;;;44.93;21.50;;;3.20;99.90;;;;;;5022983;28;20434;-53
2022/01/17 00:43:08;;;;;;;41.00;22.47;;;3.20;99.90;;;;;;5055083;28;20437;-49
2022/01/17 00:45:37;;;;;;;46.83;22.73;;;3.30;99.90;;;;;;5056062;28;20437;-46
2022/01/17 00:48:03;;;;;;;29.43;14.70;;;3.30;99.90;;;;;;5054323;28;20488;-50
2022/01/17 00:50:31;;;;;;;47.43;22.23;;;3.30;99.90;;;;;;5057615;28;20911;-47
2022/01/17 00:53:02;;;;;;;48.83;22.90;;;3.20;99.90;;;;;;5055174;28;20448;-46
2022/01/17 00:55:29;;;;;;;44.20;22.03;;;3.20;99.90;;;;;;5051264;28;20840;-47
2022/01/17 00:57:54;;;;;;;42.97;20.30;;;3.20;99.90;;;;;;5059953;28;20464;-47
2022/01/17 01:00:20;;;;;;;36.07;16.47;;;3.20;99.90;;;;;;5054268;28;20914;-49
2022/01/17 01:02:46;;;;;;;38.20;19.60;;;3.20;99.90;;;;;;5054036;28;20191;-49
2022/01/17 01:05:12;;;;;;;35.83;17.93;;;3.20;99.90;;;;;;5057332;28;20994;-50
2022/01/17 01:07:38;;;;;;;35.87;17.37;;;3.10;99.90;;;;;;5050193;28;20488;-47
2022/01/17 01:10:10;;;;;;;34.03;19.27;;;3.10;99.90;;;;;;5055826;28;20197;-46
2022/01/17 01:12:41;;;;;;;42.87;21.50;;;3.10;99.90;;;;;;5051994;28;20210;-48
2022/01/17 01:15:17;;;;;;;37.13;19.30;;;3.10;99.90;;;;;;5054762;28;20434;-46
2022/01/17 01:17:55;;;;;;;44.87;21.43;;;3.10;99.90;;;;;;5059672;28;20445;-51
2022/01/17 01:28:34;;;;;;;46.70;26.10;;;3.10;99.90;;;;;;5052863;28;20436;-46
2022/01/17 01:31:02;;;;;;;43.83;24.03;;;3.10;99.90;;;;;;5058195;28;20426;-52
2022/01/17 01:33:33;;;;;;;45.80;24.97;;;3.10;99.90;;;;;;5054475;28;20189;-52
2022/01/17 01:36:07;;;;;;;51.20;26.00;;;3.10;99.90;;;;;;5052558;28;20438;-48
2022/01/17 01:38:33;;;;;;;49.53;25.70;;;3.10;99.90;;;;;;5055720;28;20478;-50
2022/01/17 01:40:59;;;;;;;47.43;25.80;;;3.10;99.90;;;;;;5054150;28;20430;-48
2022/01/17 01:43:24;;;;;;;44.63;24.10;;;3.10;99.90;;;;;;5057536;28;20218;-49
2022/01/17 01:45:58;;;;;;;45.30;24.10;;;3.20;99.90;;;;;;5056254;28;20490;-53
2022/01/17 01:48:25;;;;;;;43.47;24.07;;;3.10;99.90;;;;;;5051457;28;20176;-51
2022/01/17 01:50:50;;;;;;;45.90;25.13;;;3.10;99.90;;;;;;5053640;28;20444;-50
2022/01/17 01:53:16;;;;;;;45.07;24.17;;;3.10;99.90;;;;;;5054727;28;20421;-52
2022/01/17 01:55:42;;;;;;;40.00;22.70;;;3.10;99.90;;;;;;5055549;28;20503;-48
2022/01/17 01:58:09;;;;;;;46.90;25.37;;;3.20;99.90;;;;;;5052752;28;20544;-51
2022/01/17 02:00:35;;;;;;;38.77;23.60;;;3.20;99.90;;;;;;5057116;28;20195;-51
2022/01/17 02:03:01;;;;;;;39.83;23.10;;;3.10;99.90;;;;;;5056577;28;20481;-48
2022/01/17 02:05:26;;;;;;;40.70;23.20;;;3.20;99.90;;;;;;5051740;28;20445;-46
2022/01/17 02:07:52;;;;;;;42.20;23.03;;;3.20;99.90;;;;;;5053557;28;20693;-51
2022/01/17 02:10:18;;;;;;;25.07;15.90;;;3.20;99.90;;;;;;5051179;28;20191;-49
2022/01/17 02:12:43;;;;;;;35.17;21.27;;;3.30;99.90;;;;;;5038111;28;20176;-51
2022/01/17 02:15:14;;;;;;;26.60;15.33;;;3.20;99.90;;;;;;5055170;28;20192;-51
2022/01/17 02:17:45;;;;;;;27.50;16.13;;;3.20;99.90;;;;;;5052324;28;20434;-50
2022/01/17 02:20:17;;;;;;;30.33;18.33;;;3.10;99.90;;;;;;5054574;28;20439;-49
2022/01/17 02:22:43;;;;;;;36.67;22.20;;;3.10;99.90;;;;;;5053488;28;20450;-46
2022/01/17 02:25:09;;;;;;;34.43;19.27;;;3.10;99.90;;;;;;5054068;28;20794;-50
2022/01/17 02:27:35;;;;;;;37.30;18.77;;;3.10;99.90;;;;;;5056381;28;20211;-47
2022/01/17 02:30:01;;;;;;;35.60;19.80;;;3.10;99.90;;;;;;5053146;28;20982;-48
2022/01/17 02:32:27;;;;;;;37.63;21.03;;;3.10;99.90;;;;;;5055099;28;20511;-52
2022/01/17 02:35:20;;;;;;;38.43;21.43;;;3.20;99.90;;;;;;5050402;28;20182;-48
2022/01/17 02:37:46;;;;;;;39.50;23.57;;;3.20;99.90;;;;;;5054740;28;20184;-49
2022/01/17 02:40:14;;;;;;;34.07;20.53;;;3.20;99.90;;;;;;5056479;28;20950;-47
2022/01/17 02:42:40;;;;;;;32.37;19.00;;;3.20;99.90;;;;;;5055365;28;20430;-49
2022/01/17 02:45:31;;;;;;;38.30;20.47;;;3.20;99.90;;;;;;5054543;28;20830;-49
2022/01/17 02:47:59;;;;;;;34.37;19.40;;;3.20;99.90;;;;;;5054347;28;20607;-49
2022/01/17 02:50:25;;;;;;;33.77;17.83;;;3.20;99.90;;;;;;5051308;28;20418;-48
2022/01/17 02:52:51;;;;;;;30.13;17.10;;;3.20;99.90;;;;;;5051146;28;20648;-50
2022/01/17 02:55:16;;;;;;;35.13;18.23;;;3.20;99.90;;;;;;5058721;28;20436;-48
2022/01/17 02:57:42;;;;;;;31.13;17.30;;;3.20;99.90;;;;;;5035771;28;20195;-52
2022/01/17 03:00:11;;;;;;;30.53;17.03;;;3.20;99.90;;;;;;5051831;28;20214;-46
2022/01/17 03:02:37;;;;;;;34.23;16.43;;;3.20;99.90;;;;;;5053777;28;20210;-46
2022/01/17 03:05:08;;;;;;;32.50;18.97;;;3.20;99.90;;;;;;5057439;28;20494;-48
2022/01/17 03:07:34;;;;;;;31.33;17.80;;;3.10;99.90;;;;;;5053701;28;20198;-47
2022/01/17 03:10:03;;;;;;;31.40;16.50;;;3.10;99.90;;;;;;5055930;28;20433;-50
2022/01/17 03:12:31;;;;;;;33.53;19.43;;;3.10;99.90;;;;;;5054123;28;20175;-49
2022/01/17 03:14:57;;;;;;;29.70;15.73;;;3.10;99.90;;;;;;5051506;28;21090;-49
2022/01/17 03:17:23;;;;;;;33.40;19.50;;;3.10;99.90;;;;;;5055369;28;20482;-51
2022/01/17 03:19:50;;;;;;;25.97;14.07;;;3.10;99.90;;;;;;5051403;28;21028;-47
2022/01/17 03:22:15;;;;;;;33.90;19.17;;;3.10;99.90;;;;;;5055477;28;20800;-48
2022/01/17 03:24:41;;;;;;;32.73;18.50;;;3.10;99.90;;;;;;5051247;28;20413;-49
2022/01/17 03:27:07;;;;;;;28.10;16.00;;;3.20;99.90;;;;;;5052835;28;20347;-51
2022/01/17 03:29:32;;;;;;;30.70;16.67;;;3.20;99.90;;;;;;5049208;28;20185;-50
2022/01/17 03:31:58;;;;;;;25.70;15.33;;;3.20;99.90;;;;;;5055327;28;20588;-48
2022/01/17 03:34:23;;;;;;;28.90;17.70;;;3.20;99.90;;;;;;5058882;28;20198;-50
2022/01/17 03:36:49;;;;;;;35.27;19.30;;;3.20;99.90;;;;;;5055893;28;20202;-49
2022/01/17 03:39:16;;;;;;;28.33;16.87;;;3.30;99.90;;;;;;5059614;28;20459;-52
2022/01/17 03:41:41;;;;;;;30.40;17.07;;;3.30;99.90;;;;;;5057110;28;20247;-50
2022/01/17 03:44:08;;;;;;;26.67;15.90;;;3.40;99.90;;;;;;5055852;28;20732;-49
2022/01/17 03:46:34;;;;;;;29.27;16.73;;;3.20;99.90;;;;;;5056905;28;20202;-46
2022/01/17 03:49:00;;;;;;;25.57;15.40;;;3.30;99.90;;;;;;5057540;28;20413;-51
2022/01/17 03:51:26;;;;;;;33.60;16.60;;;3.30;99.90;;;;;;5060373;28;20426;-47
2022/01/17 03:53:52;;;;;;;24.43;15.63;;;3.30;99.90;;;;;;5057812;28;20187;-46
2022/01/17 03:56:18;;;;;;;27.43;16.13;;;3.30;99.90;;;;;;5058771;28;20660;-45
2022/01/17 03:58:45;;;;;;;30.30;16.80;;;3.30;99.90;;;;;;5055975;28;20746;-49
2022/01/17 04:01:11;;;;;;;28.73;15.17;;;3.30;99.90;;;;;;5038073;28;21320;-45
2022/01/17 04:03:38;;;;;;;33.27;18.17;;;3.30;99.90;;;;;;5057493;28;20457;-48
2022/01/17 04:06:04;;;;;;;28.07;17.40;;;3.30;99.90;;;;;;5055521;28;20963;-47
2022/01/17 04:08:29;;;;;;;29.23;15.77;;;3.40;99.90;;;;;;5058180;28;20448;-48
2022/01/17 04:10:55;;;;;;;31.23;16.70;;;3.40;99.90;;;;;;5055174;28;20194;-46
2022/01/17 04:13:22;;;;;;;29.77;15.57;;;3.40;99.90;;;;;;5056416;28;20583;-49
2022/01/17 04:15:48;;;;;;;19.33;11.33;;;3.40;99.90;;;;;;5059084;28;20207;-51
2022/01/17 04:18:15;;;;;;;30.00;16.70;;;3.40;99.90;;;;;;5059413;28;20429;-48
2022/01/17 04:20:42;;;;;;;26.70;16.47;;;3.30;99.90;;;;;;5058022;28;20816;-47
2022/01/17 04:23:11;;;;;;;28.27;14.90;;;3.40;99.90;;;;;;5058080;28;20440;-46
2022/01/17 04:25:39;;;;;;;34.47;17.53;;;3.40;99.90;;;;;;5057167;28;20457;-46
2022/01/17 04:28:06;;;;;;;27.30;15.57;;;3.30;99.90;;;;;;5057980;28;20589;-51
2022/01/17 04:30:32;;;;;;;27.43;14.37;;;3.40;99.90;;;;;;5057806;28;20422;-48
2022/01/17 04:32:58;;;;;;;25.10;15.93;;;3.40;99.90;;;;;;5056782;28;20429;-51
2022/01/17 04:35:25;;;;;;;25.93;15.53;;;3.40;99.90;;;;;;5045560;28;20980;-53
2022/01/17 04:37:55;;;;;;;34.30;17.90;;;3.40;99.90;;;;;;5056399;28;20454;-45
2022/01/17 04:40:21;;;;;;;33.53;18.23;;;3.40;99.90;;;;;;5051934;28;20430;-48
2022/01/17 04:42:48;;;;;;;27.23;14.27;;;3.40;99.90;;;;;;5056874;28;20426;-53
2022/01/17 04:45:17;;;;;;;28.13;16.57;;;3.40;99.90;;;;;;5048730;28;20463;-48
2022/01/17 04:47:46;;;;;;;27.57;14.87;;;3.40;99.90;;;;;;5053355;28;20462;-50
2022/01/17 04:50:30;;;;;;;33.03;17.80;;;3.40;99.90;;;;;;5054698;28;20513;-48
2022/01/17 04:53:00;;;;;;;34.53;18.50;;;3.40;99.90;;;;;;5052912;28;20579;-50
2022/01/17 04:55:27;;;;;;;31.73;17.90;;;3.40;99.90;;;;;;5058203;28;20551;-46
2022/01/17 04:57:56;;;;;;;24.23;14.90;;;3.40;99.90;;;;;;5054142;28;20941;-50
2022/01/17 05:00:22;;;;;;;27.47;17.07;;;3.40;99.90;;;;;;5040088;28;20433;-46
2022/01/17 05:02:48;;;;;;;25.50;14.97;;;3.40;99.90;;;;;;5055710;28;21137;-48
2022/01/17 05:05:15;;;;;;;29.73;16.90;;;3.40;99.90;;;;;;5052779;28;20521;-47
2022/01/17 05:07:41;;;;;;;34.43;19.70;;;3.40;99.90;;;;;;5056395;28;20469;-46
2022/01/17 05:10:11;;;;;;;29.37;16.53;;;3.50;99.90;;;;;;5055478;28;20664;-48
2022/01/17 05:12:38;;;;;;;31.20;17.23;;;3.50;99.90;;;;;;5055659;28;20513;-49
2022/01/17 05:15:06;;;;;;;27.27;17.37;;;3.50;99.90;;;;;;5059109;28;20461;-48
2022/01/17 05:19:58;;;;;;;26.83;16.00;;;3.50;99.90;;;;;;5056738;28;20495;-49
2022/01/17 05:22:34;;;;;;;27.80;14.93;;;3.60;99.90;;;;;;5056939;28;20191;-47
2022/01/17 05:25:01;;;;;;;27.77;15.77;;;3.50;99.90;;;;;;5048629;28;20786;-46
2022/01/17 05:27:27;;;;;;;24.17;15.10;;;3.50;99.90;;;;;;5055480;28;20936;-47
2022/01/17 05:29:53;;;;;;;26.40;14.60;;;3.50;99.90;;;;;;5054592;28;20520;-47
2022/01/17 05:32:20;;;;;;;22.10;13.10;;;3.50;99.90;;;;;;5053690;28;20236;-45
2022/01/17 05:34:46;;;;;;;19.70;12.73;;;3.50;99.90;;;;;;5054076;28;20187;-47
2022/01/17 05:37:15;;;;;;;24.57;15.60;;;3.40;99.90;;;;;;5055913;28;20806;-48
2022/01/17 05:39:42;;;;;;;28.60;16.70;;;3.40;99.90;;;;;;5057132;28;20946;-47
2022/01/17 05:42:10;;;;;;;34.57;17.33;;;3.50;99.90;;;;;;5034628;28;20939;-46
2022/01/17 05:44:35;;;;;;;22.50;14.47;;;3.50;99.90;;;;;;5053721;28;20445;-46
2022/01/17 05:47:02;;;;;;;23.77;13.10;;;3.50;99.90;;;;;;5054745;28;20474;-48
2022/01/17 05:49:27;;;;;;;29.37;17.13;;;3.50;99.90;;;;;;5052885;28;20633;-48
2022/01/17 05:51:53;;;;;;;24.73;14.60;;;3.50;99.90;;;;;;5055565;28;20738;-50
2022/01/17 05:54:19;;;;;;;32.30;18.53;;;3.50;99.90;;;;;;5052889;28;20249;-50
2022/01/17 05:56:44;;;;;;;34.20;18.07;;;3.40;99.90;;;;;;5056191;28;20356;-46
2022/01/17 05:59:10;;;;;;;29.90;17.70;;;3.40;99.90;;;;;;5054187;28;20676;-47
2022/01/17 06:01:39;;;;;;;31.10;17.80;;;3.50;99.90;;;;;;5056891;28;20666;-47
2022/01/17 06:04:05;;;;;;;26.50;15.57;;;3.40;99.90;;;;;;5037307;28;20245;-48
2022/01/17 06:06:31;;;;;;;35.27;19.07;;;3.40;99.90;;;;;;5053932;28;20515;-48
2022/01/17 06:08:56;;;;;;;33.03;18.53;;;3.40;99.90;;;;;;5056812;28;21081;-46
2022/01/17 06:11:22;;;;;;;34.23;19.20;;;3.30;99.90;;;;;;5053272;28;20183;-46
2022/01/17 06:13:48;;;;;;;35.87;20.67;;;3.30;99.90;;;;;;5054069;28;20456;-48
2022/01/17 06:16:13;;;;;;;31.10;17.60;;;3.30;99.90;;;;;;5054683;28;20219;-47
2022/01/17 06:18:39;;;;;;;35.07;19.53;;;3.30;99.90;;;;;;5054565;28;20263;-46
2022/01/17 06:21:05;;;;;;;32.73;17.60;;;3.40;99.90;;;;;;5056562;28;20183;-46
2022/01/17 06:23:30;;;;;;;36.53;20.10;;;3.40;99.90;;;;;;5054523;28;20657;-49
2022/01/17 06:25:56;;;;;;;32.80;18.47;;;3.40;99.90;;;;;;5055195;28;20469;-48
2022/01/17 06:28:22;;;;;;;38.73;20.03;;;3.40;99.90;;;;;;5059271;28;20214;-50
2022/01/17 06:30:47;;;;;;;29.70;17.63;;;3.40;99.90;;;;;;5055021;28;20192;-48
2022/01/17 06:33:13;;;;;;;32.43;19.10;;;3.50;99.90;;;;;;5054017;28;20454;-48
2022/01/17 06:35:39;;;;;;;27.70;17.77;;;3.50;99.90;;;;;;5055141;28;20199;-52
2022/01/17 06:38:04;;;;;;;31.70;19.07;;;3.40;99.90;;;;;;5054984;28;20215;-50
2022/01/17 06:40:30;;;;;;;32.83;18.87;;;3.40;99.90;;;;;;5057523;28;20652;-48
2022/01/17 06:42:56;;;;;;;33.63;18.63;;;3.40;99.90;;;;;;5052895;28;20182;-50
2022/01/17 06:45:21;;;;;;;31.50;18.33;;;3.30;99.90;;;;;;5035069;28;20576;-51
2022/01/17 06:47:47;;;;;;;34.97;20.20;;;3.30;99.90;;;;;;5056477;28;20454;-50
2022/01/17 06:50:13;;;;;;;31.57;19.27;;;3.30;99.90;;;;;;5054569;28;20193;-52
2022/01/17 06:52:40;;;;;;;28.90;17.27;;;3.30;99.90;;;;;;5052409;28;20213;-50
2022/01/17 06:55:06;;;;;;;31.37;18.60;;;3.30;99.90;;;;;;5055415;28;20516;-48
2022/01/17 06:57:32;;;;;;;34.97;18.63;;;3.30;99.90;;;;;;5051913;28;20437;-52
2022/01/17 06:59:58;;;;;;;34.30;21.57;;;3.30;99.90;;;;;;5054076;28;20430;-51
2022/01/17 07:02:23;;;;;;;43.23;19.60;;;3.30;99.90;;;;;;5055718;28;20227;-48
2022/01/17 07:04:49;;;;;;;36.77;22.10;;;3.30;99.90;;;;;;5051893;28;20769;-50
2022/01/17 07:07:14;;;;;;;36.30;21.27;;;3.30;99.90;;;;;;5053609;28;20293;-50
2022/01/17 07:09:40;;;;;;;39.10;22.20;;;3.40;99.90;;;;;;5057490;28;20278;-50
2022/01/17 07:12:06;;;;;;;34.50;19.77;;;3.40;99.90;;;;;;5052879;28;20215;-45
2022/01/17 07:14:32;;;;;;;37.37;19.37;;;3.50;99.90;;;;;;5058017;28;20187;-49
2022/01/17 07:16:58;;;;;;;34.90;19.47;;;3.50;99.90;;;;;;5058556;28;20502;-51
2022/01/17 07:19:24;;;;;;;35.10;20.30;;;3.50;99.90;;;;;;5057344;28;20190;-48
2022/01/17 07:21:50;;;;;;;30.80;18.80;;;3.50;99.90;;;;;;5061039;28;20191;-49
2022/01/17 07:24:17;;;;;;;29.13;19.63;;;3.50;99.90;;;;;;5052815;28;20544;-49
2022/01/17 07:26:42;;;;;;;33.73;21.83;;;3.50;99.90;;;;;;5060221;28;20836;-48
2022/01/17 07:29:08;;;;;;;37.43;20.60;;;3.40;99.90;;;;;;5055475;28;20463;-47
2022/01/17 07:31:38;;;;;;;30.77;19.00;;;3.50;99.90;;;;;;5057347;28;20199;-47
2022/01/17 07:34:05;;;;;;;38.73;21.90;;;3.40;99.90;;;;;;5058888;28;20422;-50
2022/01/17 07:36:31;;;;;;;38.93;21.97;;;3.30;99.90;;;;;;5059612;28;20457;-50
2022/01/17 07:38:58;;;;;;;28.03;18.40;;;3.30;99.90;;;;;;5057642;28;20441;-46
2022/01/17 07:41:23;;;;;;;31.87;18.67;;;3.30;99.90;;;;;;5055317;28;20417;-45
2022/01/17 07:43:50;;;;;;;41.90;21.93;;;3.30;99.90;;;;;;5058390;28;20430;-44
2022/01/17 07:46:24;;;;;;;35.37;21.03;;;3.30;99.90;;;;;;5051288;28;20199;-49
2022/01/17 07:51:30;;;;;;;33.87;20.13;;;3.30;99.90;;;;;;5060090;28;20447;-48
2022/01/17 07:53:56;;;;;;;37.93;21.80;;;3.30;99.90;;;;;;5053266;28;20481;-52
2022/01/17 07:56:23;;;;;;;40.93;21.93;;;3.20;99.90;;;;;;5057058;28;20472;-50
2022/01/17 07:58:49;;;;;;;34.27;20.03;;;3.20;99.90;;;;;;5064558;28;20425;-48
2022/01/17 08:01:15;;;;;;;36.23;20.27;;;3.20;99.90;;;;;;5057787;28;20475;-47
2022/01/17 08:03:41;;;;;;;38.83;23.63;;;3.30;99.90;;;;;;5055366;28;20219;-48
2022/01/17 08:06:07;;;;;;;32.77;20.47;;;3.30;99.90;;;;;;5056396;28;20545;-49
2022/01/17 08:08:33;;;;;;;35.10;19.60;;;3.30;99.90;;;;;;5058357;28;20195;-49
2022/01/17 08:10:59;;;;;;;37.00;21.63;;;3.30;99.90;;;;;;5058185;28;20475;-49
2022/01/17 08:13:25;;;;;;;35.30;22.37;;;3.30;99.90;;;;;;5056500;28;20245;-48
2022/01/17 08:15:51;;;;;;;39.60;23.40;;;3.30;99.90;;;;;;5053959;28;20210;-48
2022/01/17 08:18:17;;;;;;;37.77;23.00;;;3.30;99.90;;;;;;5057313;28;20991;-47
2022/01/17 08:20:43;;;;;;;33.13;19.00;;;3.30;99.90;;;;;;5057109;28;21087;-45
2022/01/17 08:23:09;;;;;;;33.70;20.60;;;3.30;99.90;;;;;;5057056;28;20414;-49
2022/01/17 08:25:36;;;;;;;40.47;20.80;;;3.30;99.90;;;;;;5057073;28;20446;-50
2022/01/17 08:28:02;;;;;;;39.33;22.10;;;3.30;99.90;;;;;;5056750;28;20468;-49
2022/01/17 08:30:28;;;;;;;33.80;19.40;;;3.30;99.90;;;;;;5054084;28;20484;-48
2022/01/17 08:32:55;;;;;;;35.13;20.90;;;3.30;99.90;;;;;;5053171;28;20536;-48
2022/01/17 08:35:21;;;;;;;39.60;22.07;;;3.30;99.90;;;;;;5044310;28;20217;-49
2022/01/17 08:37:47;;;;;;;41.00;24.10;;;3.20;99.90;;;;;;5057107;28;20924;-49
2022/01/17 08:40:14;;;;;;;39.10;22.50;;;3.30;99.90;;;;;;5038349;28;20430;-48
2022/01/17 08:42:40;;;;;;;37.60;20.43;;;3.30;99.90;;;;;;5056444;28;20179;-47
2022/01/17 08:45:08;;;;;;;38.33;21.00;;;3.40;99.90;;;;;;5054158;28;20501;-52
2022/01/17 08:47:34;;;;;;;30.67;19.43;;;3.30;99.90;;;;;;5064329;28;20207;-51
2022/01/17 08:49:59;;;;;;;42.17;22.60;;;3.40;99.90;;;;;;5055970;28;20429;-50
2022/01/17 08:52:25;;;;;;;32.07;18.37;;;3.30;99.90;;;;;;5055352;28;20184;-52
2022/01/17 08:54:51;;;;;;;35.23;20.83;;;3.20;99.90;;;;;;5055513;28;20674;-47
2022/01/17 08:57:17;;;;;;;34.17;21.23;;;3.20;99.90;;;;;;5058238;28;21373;-48
2022/01/17 08:59:45;;;;;;;31.43;16.67;;;3.20;99.90;;;;;;5055463;28;20434;-49
2022/01/17 09:02:11;;;;;;;41.83;22.90;;;3.20;99.90;;;;;;5058392;28;20540;-50
2022/01/17 09:04:40;;;;;;;39.70;22.73;;;3.20;99.90;;;;;;5054818;28;20432;-52
2022/01/17 09:07:11;;;;;;;39.90;23.57;;;3.30;99.90;;;;;;5053814;28;20474;-47
2022/01/17 09:09:39;;;;;;;42.90;23.43;;;3.20;99.90;;;;;;5057837;28;20926;-48
2022/01/17 09:12:07;;;;;;;38.47;21.77;;;3.20;99.90;;;;;;5038536;28;20416;-53
2022/01/17 09:14:33;;;;;;;42.77;21.73;;;3.20;99.90;;;;;;5055206;28;20776;-52
2022/01/17 09:16:59;;;;;;;36.83;22.77;;;3.30;99.90;;;;;;5053291;28;20993;-46
2022/01/17 09:19:26;;;;;;;33.37;20.93;;;3.30;99.90;;;;;;5055789;28;20417;-49
2022/01/17 09:21:52;;;;;;;34.70;21.20;;;3.30;99.90;;;;;;5055872;28;20263;-46
2022/01/17 09:24:18;;;;;;;37.03;21.23;;;3.40;99.90;;;;;;5041915;28;20583;-50
2022/01/17 09:26:45;;;;;;;34.13;19.93;;;3.40;99.90;;;;;;5055132;28;20730;-50
2022/01/17 09:29:11;;;;;;;38.93;21.27;;;3.40;99.90;;;;;;5054483;28;20178;-51
2022/01/17 09:31:36;;;;;;;26.30;16.00;;;3.40;99.90;;;;;;5055720;28;20499;-49
2022/01/17 09:34:02;;;;;;;39.83;22.20;;;3.50;99.90;;;;;;5053049;28;20710;-47
2022/01/17 09:36:31;;;;;;;35.00;20.27;;;3.50;99.90;;;;;;5059413;28;20290;-47
2022/01/17 09:38:57;;;;;;;38.90;21.73;;;3.40;99.90;;;;;;5035618;28;21766;-50
2022/01/17 09:41:23;;;;;;;38.13;21.03;;;3.50;99.90;;;;;;5056171;28;20430;-50
2022/01/17 09:43:50;;;;;;;36.30;19.40;;;3.40;99.90;;;;;;5055281;28;20417;-49
2022/01/17 09:46:17;;;;;;;37.33;21.60;;;3.50;99.90;;;;;;5054608;28;20855;-49
2022/01/17 09:48:47;;;;;;;30.63;16.50;;;3.50;99.90;;;;;;5054491;28;20422;-46
2022/01/17 09:51:20;;;;;;;36.57;20.00;;;3.50;99.90;;;;;;5057037;28;20485;-49
2022/01/17 09:53:50;;;;;;;28.83;19.17;;;3.50;99.90;;;;;;5055784;28;20414;-45
2022/01/17 09:56:18;;;;;;;36.10;20.30;;;3.50;99.90;;;;;;5038934;28;20965;-47
2022/01/17 09:58:45;;;;;;;36.73;20.97;;;3.50;99.90;;;;;;5052374;28;20434;-49
2022/01/17 10:01:11;;;;;;;34.00;20.10;;;3.60;99.90;;;;;;5054905;28;20426;-47
2022/01/17 10:03:37;;;;;;;34.43;21.73;;;3.60;99.90;;;;;;5056651;28;20421;-51
2022/01/17 10:06:03;;;;;;;30.13;17.33;;;3.70;99.90;;;;;;5049045;28;20203;-50
2022/01/17 10:08:28;;;;;;;34.37;20.57;;;3.60;99.90;;;;;;5055100;28;20495;-48
2022/01/17 10:11:04;;;;;;;38.07;20.83;;;3.60;99.90;;;;;;5055053;28;20572;-47
2022/01/17 10:13:42;;;;;;;37.10;20.67;;;3.60;99.90;;;;;;5054102;28;20211;-49
2022/01/17 10:16:09;;;;;;;31.87;18.27;;;3.60;99.90;;;;;;5056064;28;20448;-50
2022/01/17 10:18:54;;;;;;;36.60;20.13;;;3.60;99.90;;;;;;5053816;28;20421;-48
2022/01/17 10:21:31;;;;;;;38.13;19.97;;;3.60;99.90;;;;;;5053297;28;20483;-49
2022/01/17 10:24:13;;;;;;;25.87;15.30;;;3.60;99.90;;;;;;5049887;28;20448;-53
2022/01/17 10:35:09;;;;;;;34.90;20.20;;;3.70;99.90;;;;;;5051904;28;20416;-47
2022/01/17 10:37:35;;;;;;;37.57;23.00;;;3.80;99.90;;;;;;5051982;28;20551;-46
2022/01/17 10:40:03;;;;;;;36.97;21.13;;;3.70;99.90;;;;;;5053037;28;20513;-48
2022/01/17 10:42:29;;;;;;;34.10;21.63;;;3.80;99.90;;;;;;5051520;28;20554;-50
2022/01/17 10:45:01;;;;;;;39.47;21.57;;;3.80;99.90;;;;;;5056369;28;20432;-48
2022/01/17 10:47:28;;;;;;;36.70;21.03;;;3.80;99.90;;;;;;5057669;28;20221;-48
2022/01/17 10:49:56;;;;;;;36.70;21.10;;;3.80;99.90;;;;;;5052517;28;20416;-50
2022/01/17 10:52:30;;;;;;;32.70;18.57;;;3.80;99.90;;;;;;5041113;28;21250;-49
2022/01/17 10:54:58;;;;;;;34.80;19.70;;;3.80;99.90;;;;;;5049106;28;20441;-46
2022/01/17 10:57:25;;;;;;;35.87;19.40;;;3.90;99.90;;;;;;5049281;28;20450;-47
2022/01/17 10:59:52;;;;;;;34.67;20.93;;;3.90;99.90;;;;;;5057128;28;20866;-50
2022/01/17 11:02:18;;;;;;;38.53;22.80;;;4.00;99.90;;;;;;5056892;28;20431;-50
2022/01/17 11:04:48;;;;;;;37.07;21.73;;;4.00;99.90;;;;;;5050433;28;20433;-50
2022/01/17 11:07:14;;;;;;;32.07;19.83;;;4.00;99.90;;;;;;5057148;28;21032;-48
2022/01/17 11:09:41;;;;;;;34.23;19.70;;;4.00;99.90;;;;;;5049104;28;20423;-52
2022/01/17 11:12:12;;;;;;;35.53;20.57;;;4.10;99.90;;;;;;5054323;28;20207;-47
2022/01/17 11:14:38;;;;;;;32.23;19.60;;;4.10;99.90;;;;;;5055006;28;20778;-48
2022/01/17 11:17:24;;;;;;;37.67;21.00;;;4.10;99.90;;;;;;5054241;28;20520;-51
2022/01/17 11:22:50;;;;;;;34.17;20.27;;;4.00;99.90;;;;;;5029228;28;20434;-47
2022/01/17 11:25:22;;;;;;;39.77;19.47;;;4.00;99.90;;;;;;5049863;28;20443;-50
2022/01/17 11:27:49;;;;;;;41.93;24.37;;;4.00;99.90;;;;;;5052617;28;20543;-48
2022/01/17 11:30:16;;;;;;;39.17;21.83;;;4.00;99.90;;;;;;5052655;28;20430;-52
2022/01/17 11:32:44;;;;;;;37.90;22.70;;;4.00;99.90;;;;;;5054911;28;20499;-49
2022/01/17 11:35:10;;;;;;;36.63;21.90;;;4.00;99.90;;;;;;5049906;28;20494;-48
2022/01/17 11:37:41;;;;;;;38.87;22.20;;;4.10;99.90;;;;;;5051153;28;20418;-49
2022/01/17 11:40:09;;;;;;;34.07;18.73;;;4.00;99.90;;;;;;5057126;28;20852;-48
2022/01/17 11:42:45;;;;;;;37.43;22.20;;;4.00;99.90;;;;;;5057100;28;20800;-51
2022/01/17 11:45:22;;;;;;;37.23;22.40;;;4.10;99.90;;;;;;5051990;28;20421;-49
2022/01/17 11:51:14;;;;;;;35.57;21.90;;;4.10;99.90;;;;;;4997623;28;20433;-50
2022/01/17 11:53:43;;;;;;;35.40;22.73;;;4.10;99.90;;;;;;5053083;28;20417;-49
2022/01/17 11:56:09;;;;;;;36.10;23.13;;;4.10;99.90;;;;;;5054028;28;20450;-48
2022/01/17 11:58:46;;;;;;;34.13;21.70;;;4.10;99.90;;;;;;5055125;28;20438;-48
2022/01/17 12:01:20;;;;;;;33.83;21.40;;;4.20;99.90;;;;;;5057685;28;20437;-51
2022/01/17 12:03:54;;;;;;;37.63;19.20;;;4.10;99.90;;;;;;5055850;28;20481;-52
2022/01/17 12:06:24;;;;;;;36.93;21.27;;;4.20;99.90;;;;;;5057426;28;21021;-47
2022/01/17 12:09:21;;;;;;;35.73;20.37;;;4.20;99.90;;;;;;5059879;28;20471;-48
2022/01/17 12:12:07;;;;;;;40.60;21.90;;;4.20;99.90;;;;;;5043303;28;20476;-50
2022/01/17 12:14:35;;;;;;;36.80;22.80;;;4.20;99.90;;;;;;5036567;28;20797;-51
2022/01/17 12:17:19;;;;;;;33.83;19.67;;;4.10;99.90;;;;;;5055034;28;20469;-50
2022/01/17 12:20:03;;;;;;;33.03;20.67;;;4.20;99.90;;;;;;5054461;28;20508;-47
2022/01/17 12:22:46;;;;;;;32.57;19.93;;;4.10;99.90;;;;;;5056400;28;20520;-50
2022/01/17 12:25:21;;;;;;;28.93;18.97;;;4.30;99.90;;;;;;5056042;28;20884;-47
2022/01/17 12:27:48;;;;;;;29.53;16.90;;;4.30;99.90;;;;;;5055935;28;20473;-53
2022/01/17 12:30:15;;;;;;;23.50;13.40;;;4.30;99.90;;;;;;5055731;28;20478;-51
2022/01/17 12:32:45;;;;;;;33.93;18.70;;;4.30;99.90;;;;;;5055476;28;20439;-52
2022/01/17 12:35:16;;;;;;;33.03;20.70;;;4.30;99.90;;;;;;5055160;28;20417;-46
2022/01/17 12:37:50;;;;;;;31.30;20.20;;;4.30;99.90;;;;;;5055430;28;20441;-53
2022/01/17 12:40:31;;;;;;;30.80;18.77;;;4.30;99.90;;;;;;5032893;28;20457;-49
2022/01/17 12:43:17;;;;;;;31.77;18.87;;;4.30;99.90;;;;;;5055320;28;20405;-50
2022/01/17 12:45:50;;;;;;;31.67;18.57;;;4.30;99.90;;;;;;5039178;28;20981;-51
2022/01/17 12:48:19;;;;;;;31.63;18.33;;;4.30;99.90;;;;;;5052489;28;20955;-52
2022/01/17 12:50:47;;;;;;;28.83;20.90;;;4.30;99.90;;;;;;5060547;28;20425;-50
2022/01/17 12:53:15;;;;;;;25.10;17.00;;;4.30;99.90;;;;;;5060074;28;20410;-51
2022/01/17 12:55:46;;;;;;;30.20;18.63;;;4.40;99.90;;;;;;5055546;28;20748;-48
2022/01/17 12:58:16;;;;;;;31.50;17.43;;;4.40;99.90;;;;;;5056835;28;20878;-48
2022/01/17 13:00:50;;;;;;;29.40;18.33;;;4.40;99.90;;;;;;5055912;28;20431;-50
2022/01/17 13:03:17;;;;;;;34.47;20.27;;;4.40;99.90;;;;;;5055614;28;20468;-47
2022/01/17 13:05:44;;;;;;;27.30;19.20;;;4.40;99.90;;;;;;5052229;28;20465;-53
2022/01/17 13:08:11;;;;;;;27.33;17.13;;;4.50;99.90;;;;;;5052374;28;20950;-47
2022/01/17 13:10:37;;;;;;;30.10;19.00;;;4.50;99.90;;;;;;5057267;28;20512;-52
2022/01/17 13:13:03;;;;;;;31.13;18.37;;;4.50;99.90;;;;;;5060286;28;20990;-51